createdAt,value
2022-12-18T00:00:24.455Z,23.86
2022-12-18T00:00:54.567Z,23.86
2022-12-18T00:01:24.713Z,23.82
2022-12-18T00:01:54.878Z,23.82
2022-12-18T00:02:24.832Z,23.86
2022-12-18T00:02:55.058Z,23.83
2022-12-18T00:03:25.128Z,23.86
2022-12-18T00:03:55.206Z,23.91
2022-12-18T00:04:25.097Z,23.86
2022-12-18T00:04:55.106Z,23.91
2022-12-18T00:05:25.234Z,23.88
2022-12-18T00:05:55.218Z,23.91
2022-12-18T00:06:25.338Z,23.88
2022-12-18T00:06:55.451Z,23.91
2022-12-18T00:07:25.565Z,23.86
2022-12-18T00:07:55.724Z,23.91
2022-12-18T00:08:25.682Z,23.85
2022-12-18T00:08:55.677Z,23.96
2022-12-18T00:09:25.804Z,23.94
2022-12-18T00:09:55.819Z,23.92
2022-12-18T00:10:25.932Z,23.91
2022-12-18T00:10:56.056Z,23.91
2022-12-18T00:11:26.113Z,23.92
2022-12-18T00:11:56.105Z,23.92
2022-12-18T00:12:26.097Z,23.89
2022-12-18T00:12:56.211Z,23.97
2022-12-18T00:13:26.324Z,23.89
2022-12-18T00:13:56.365Z,23.90
2022-12-18T00:14:26.489Z,23.85
2022-12-18T00:14:56.589Z,23.86
2022-12-18T00:15:26.697Z,23.86
2022-12-18T00:15:56.890Z,23.88
2022-12-18T00:16:26.888Z,23.80
2022-12-18T00:16:56.930Z,23.84
2022-12-18T00:17:26.928Z,23.76
2022-12-18T00:17:57.043Z,23.79
2022-12-18T00:18:27.145Z,23.79
2022-12-18T00:18:57.255Z,23.77
2022-12-18T00:19:27.367Z,23.81
2022-12-18T00:19:57.483Z,23.78
2022-12-18T00:20:27.592Z,23.79
2022-12-18T00:20:57.713Z,23.76
2022-12-18T00:21:27.855Z,23.78
2022-12-18T00:21:57.987Z,23.83
2022-12-18T00:22:27.987Z,23.78
2022-12-18T00:22:57.965Z,23.79
2022-12-18T00:23:28.081Z,23.73
2022-12-18T00:23:58.192Z,23.67
2022-12-18T00:24:28.304Z,23.69
2022-12-18T00:24:58.296Z,23.69
2022-12-18T00:25:28.420Z,23.65
2022-12-18T00:25:58.427Z,23.69
2022-12-18T00:26:28.405Z,23.65
2022-12-18T00:26:58.522Z,23.64
2022-12-18T00:27:28.636Z,23.64
2022-12-18T00:27:58.747Z,23.63
2022-12-18T00:28:28.870Z,23.63
2022-12-18T00:28:58.978Z,23.58
2022-12-18T00:29:29.123Z,23.62
2022-12-18T00:29:59.222Z,23.59
2022-12-18T00:30:29.205Z,23.59
2022-12-18T00:30:59.328Z,23.61
2022-12-18T00:31:29.501Z,23.63
2022-12-18T00:31:59.508Z,23.58
2022-12-18T00:32:29.468Z,23.63
2022-12-18T00:32:59.581Z,23.53
2022-12-18T00:33:29.697Z,23.64
2022-12-18T00:33:59.814Z,23.58
2022-12-18T00:34:29.815Z,23.56
2022-12-18T00:34:59.926Z,23.58
2022-12-18T00:35:30.040Z,23.66
2022-12-18T00:36:00.191Z,23.66
2022-12-18T00:36:30.178Z,23.59
2022-12-18T00:37:00.186Z,23.66
2022-12-18T00:37:30.226Z,23.61
2022-12-18T00:38:00.197Z,23.55
2022-12-18T00:38:30.309Z,23.64
2022-12-18T00:39:00.425Z,23.63
2022-12-18T00:39:30.547Z,23.63
2022-12-18T00:40:00.577Z,23.63
2022-12-18T00:40:30.578Z,23.61
2022-12-18T00:41:00.679Z,23.64
2022-12-18T00:41:30.767Z,23.57
2022-12-18T00:42:00.774Z,23.59
2022-12-18T00:42:30.762Z,23.61
2022-12-18T00:43:00.745Z,23.62
2022-12-18T00:43:30.863Z,23.61
2022-12-18T00:44:00.976Z,23.59
2022-12-18T00:44:30.992Z,23.61
2022-12-18T00:45:01.094Z,23.65
2022-12-18T00:45:31.316Z,23.61
2022-12-18T00:46:01.340Z,23.59
2022-12-18T00:46:31.314Z,23.64
2022-12-18T00:47:01.471Z,23.70
2022-12-18T00:47:31.461Z,23.70
2022-12-18T00:48:01.599Z,23.64
2022-12-18T00:48:31.729Z,23.71
2022-12-18T00:49:01.793Z,23.68
2022-12-18T00:49:31.884Z,23.65
2022-12-18T00:50:01.983Z,23.66
2022-12-18T00:50:32.035Z,23.70
2022-12-18T00:51:02.036Z,23.71
2022-12-18T00:51:32.126Z,23.73
2022-12-18T00:52:02.219Z,23.71
2022-12-18T00:52:32.296Z,23.74
2022-12-18T00:53:02.367Z,23.71
2022-12-18T00:53:32.445Z,23.73
2022-12-18T00:54:02.524Z,23.76
2022-12-18T00:54:32.604Z,23.77
2022-12-18T00:55:06.194Z,23.80
2022-12-18T00:55:32.783Z,23.71
2022-12-18T00:56:02.855Z,23.75
2022-12-18T00:56:32.933Z,23.79
2022-12-18T00:57:03.030Z,23.75
2022-12-18T00:57:33.100Z,23.80
2022-12-18T00:58:03.172Z,23.77
2022-12-18T00:58:33.259Z,23.77
2022-12-18T00:59:03.374Z,23.82
2022-12-18T00:59:33.519Z,23.80
2022-12-18T01:00:03.598Z,23.85
2022-12-18T01:00:33.757Z,23.82
2022-12-18T01:01:03.913Z,23.80
2022-12-18T01:01:34.002Z,23.83
2022-12-18T01:02:04.084Z,23.80
2022-12-18T01:02:34.117Z,23.83
2022-12-18T01:03:04.131Z,23.78
2022-12-18T01:03:34.050Z,23.83
2022-12-18T01:04:04.205Z,23.84
2022-12-18T01:04:34.177Z,23.83
2022-12-18T01:05:04.298Z,23.88
2022-12-18T01:05:34.312Z,23.77
2022-12-18T01:06:04.408Z,23.85
2022-12-18T01:06:34.400Z,23.84
2022-12-18T01:07:04.521Z,23.85
2022-12-18T01:07:34.631Z,23.83
2022-12-18T01:08:04.746Z,23.86
2022-12-18T01:08:34.824Z,23.89
2022-12-18T01:09:04.951Z,23.81
2022-12-18T01:09:34.938Z,23.87
2022-12-18T01:10:05.055Z,23.87
2022-12-18T01:10:35.168Z,23.84
2022-12-18T01:11:05.273Z,23.79
2022-12-18T01:11:35.387Z,23.81
2022-12-18T01:12:05.402Z,23.83
2022-12-18T01:12:35.505Z,23.83
2022-12-18T01:13:05.639Z,23.91
2022-12-18T01:13:35.900Z,23.81
2022-12-18T01:14:05.622Z,23.81
2022-12-18T01:14:35.741Z,23.81
2022-12-18T01:15:05.869Z,23.91
2022-12-18T01:15:35.865Z,23.84
2022-12-18T01:16:05.899Z,23.86
2022-12-18T01:16:35.994Z,23.86
2022-12-18T01:17:05.913Z,23.80
2022-12-18T01:17:35.909Z,23.82
2022-12-18T01:18:06.020Z,23.77
2022-12-18T01:18:36.129Z,23.82
2022-12-18T01:19:06.252Z,23.80
2022-12-18T01:19:36.246Z,23.80
2022-12-18T01:20:06.361Z,23.75
2022-12-18T01:20:36.473Z,23.72
2022-12-18T01:21:06.584Z,23.74
2022-12-18T01:21:36.698Z,23.76
2022-12-18T01:22:06.822Z,23.72
2022-12-18T01:22:36.814Z,23.74
2022-12-18T01:23:06.804Z,23.74
2022-12-18T01:23:37.341Z,23.66
2022-12-18T01:24:07.037Z,23.73
2022-12-18T01:24:37.147Z,23.66
2022-12-18T01:25:07.261Z,23.66
2022-12-18T01:25:37.406Z,23.64
2022-12-18T01:26:07.401Z,23.64
2022-12-18T01:26:37.515Z,23.59
2022-12-18T01:27:07.639Z,23.62
2022-12-18T01:27:37.627Z,23.56
2022-12-18T01:28:07.776Z,23.56
2022-12-18T01:28:37.738Z,23.61
2022-12-18T01:29:07.848Z,23.51
2022-12-18T01:29:37.952Z,23.56
2022-12-18T01:30:08.066Z,23.55
2022-12-18T01:30:38.065Z,23.55
2022-12-18T01:31:08.180Z,23.55
2022-12-18T01:31:38.342Z,23.50
2022-12-18T01:32:08.506Z,23.52
2022-12-18T01:32:38.520Z,23.48
2022-12-18T01:33:08.626Z,23.45
2022-12-18T01:33:39.177Z,23.45
2022-12-18T01:34:08.745Z,23.55
2022-12-18T01:34:38.731Z,23.53
2022-12-18T01:35:08.850Z,23.52
2022-12-18T01:35:38.974Z,23.49
2022-12-18T01:36:09.094Z,23.45
2022-12-18T01:36:39.082Z,23.45
2022-12-18T01:37:09.217Z,23.44
2022-12-18T01:37:39.204Z,23.45
2022-12-18T01:38:09.322Z,23.49
2022-12-18T01:38:39.418Z,23.44
2022-12-18T01:39:09.540Z,23.45
2022-12-18T01:39:39.687Z,23.45
2022-12-18T01:40:09.654Z,23.47
2022-12-18T01:40:39.780Z,23.42
2022-12-18T01:41:09.879Z,23.47
2022-12-18T01:41:39.997Z,23.44
2022-12-18T01:42:10.122Z,23.49
2022-12-18T01:42:40.103Z,23.47
2022-12-18T01:43:10.235Z,23.47
2022-12-18T01:43:40.776Z,23.45
2022-12-18T01:44:10.398Z,23.48
2022-12-18T01:44:40.508Z,23.48
2022-12-18T01:45:10.625Z,23.50
2022-12-18T01:45:40.740Z,23.48
2022-12-18T01:46:10.803Z,23.47
2022-12-18T01:46:40.814Z,23.53
2022-12-18T01:47:10.950Z,23.50
2022-12-18T01:47:40.957Z,23.55
2022-12-18T01:48:10.952Z,23.51
2022-12-18T01:48:41.037Z,23.51
2022-12-18T01:49:11.127Z,23.51
2022-12-18T01:49:41.182Z,23.56
2022-12-18T01:50:11.260Z,23.54
2022-12-18T01:50:41.338Z,23.53
2022-12-18T01:51:11.414Z,23.57
2022-12-18T01:51:41.497Z,23.52
2022-12-18T01:52:11.573Z,23.52
2022-12-18T01:52:41.680Z,23.56
2022-12-18T01:53:11.771Z,23.54
2022-12-18T01:53:41.941Z,23.57
2022-12-18T01:54:11.852Z,23.56
2022-12-18T01:54:41.926Z,23.62
2022-12-18T01:55:12.005Z,23.59
2022-12-18T01:55:42.105Z,23.60
2022-12-18T01:56:12.176Z,23.62
2022-12-18T01:56:42.257Z,23.58
2022-12-18T01:57:12.318Z,23.62
2022-12-18T01:57:42.425Z,23.62
2022-12-18T01:58:12.496Z,23.60
2022-12-18T01:58:42.612Z,23.63
2022-12-18T01:59:12.726Z,23.62
2022-12-18T01:59:42.840Z,23.73
2022-12-18T02:00:12.959Z,23.68
2022-12-18T02:00:43.125Z,23.69
2022-12-18T02:01:13.153Z,23.69
2022-12-18T02:01:43.343Z,23.70
2022-12-18T02:02:13.360Z,23.74
2022-12-18T02:02:43.473Z,23.75
2022-12-18T02:03:13.425Z,23.74
2022-12-18T02:03:43.412Z,23.72
2022-12-18T02:04:13.523Z,23.72
2022-12-18T02:04:49.190Z,23.75
2022-12-18T02:05:13.652Z,23.70
2022-12-18T02:05:43.766Z,23.75
2022-12-18T02:06:13.897Z,23.80
2022-12-18T02:06:43.999Z,23.73
2022-12-18T02:07:14.114Z,23.75
2022-12-18T02:07:44.265Z,23.81
2022-12-18T02:08:14.241Z,23.80
2022-12-18T02:08:44.358Z,23.76
2022-12-18T02:09:14.475Z,23.75
2022-12-18T02:09:44.581Z,23.80
2022-12-18T02:10:14.704Z,23.79
2022-12-18T02:10:44.691Z,23.76
2022-12-18T02:11:14.786Z,23.78
2022-12-18T02:11:44.899Z,23.76
2022-12-18T02:12:15.015Z,23.81
2022-12-18T02:12:45.254Z,23.78
2022-12-18T02:13:15.224Z,23.79
2022-12-18T02:13:45.204Z,23.78
2022-12-18T02:14:15.316Z,23.76
2022-12-18T02:14:45.417Z,23.78
2022-12-18T02:15:15.527Z,23.81
2022-12-18T02:15:45.521Z,23.81
2022-12-18T02:16:15.686Z,23.79
2022-12-18T02:16:45.823Z,23.81
2022-12-18T02:17:15.676Z,23.81
2022-12-18T02:17:45.833Z,23.79
2022-12-18T02:18:15.814Z,23.79
2022-12-18T02:18:45.940Z,23.84
2022-12-18T02:19:15.939Z,23.79
2022-12-18T02:19:46.052Z,23.81
2022-12-18T02:20:16.167Z,23.81
2022-12-18T02:20:46.278Z,23.79
2022-12-18T02:21:16.390Z,23.81
2022-12-18T02:21:46.507Z,23.79
2022-12-18T02:22:16.640Z,23.76
2022-12-18T02:22:46.629Z,23.85
2022-12-18T02:23:16.741Z,23.75
2022-12-18T02:23:46.740Z,23.78
2022-12-18T02:24:16.851Z,23.72
2022-12-18T02:24:47.003Z,23.77
2022-12-18T02:25:17.066Z,23.70
2022-12-18T02:25:47.181Z,23.64
2022-12-18T02:26:17.296Z,23.68
2022-12-18T02:26:47.403Z,23.65
2022-12-18T02:27:17.534Z,23.65
2022-12-18T02:27:47.640Z,23.65
2022-12-18T02:28:17.582Z,23.55
2022-12-18T02:28:47.664Z,23.59
2022-12-18T02:29:17.775Z,23.57
2022-12-18T02:29:50.573Z,23.60
2022-12-18T02:30:17.906Z,23.57
2022-12-18T02:30:48.118Z,23.56
2022-12-18T02:31:18.082Z,23.59
2022-12-18T02:31:48.084Z,23.56
2022-12-18T02:32:18.204Z,23.53
2022-12-18T02:32:48.194Z,23.54
2022-12-18T02:33:18.303Z,23.48
2022-12-18T02:33:48.466Z,23.50
2022-12-18T02:34:18.448Z,23.50
2022-12-18T02:34:48.467Z,23.46
2022-12-18T02:35:18.582Z,23.48
2022-12-18T02:35:48.696Z,23.44
2022-12-18T02:36:18.805Z,23.42
2022-12-18T02:36:48.929Z,23.43
2022-12-18T02:37:19.037Z,23.42
2022-12-18T02:37:49.149Z,23.42
2022-12-18T02:38:19.287Z,23.39
2022-12-18T02:38:49.370Z,23.42
2022-12-18T02:39:19.482Z,23.44
2022-12-18T02:39:49.601Z,23.37
2022-12-18T02:40:19.718Z,23.41
2022-12-18T02:40:49.829Z,23.42
2022-12-18T02:41:19.938Z,23.36
2022-12-18T02:41:50.053Z,23.41
2022-12-18T02:42:20.163Z,23.45
2022-12-18T02:42:55.842Z,23.36
2022-12-18T02:43:20.402Z,23.36
2022-12-18T02:43:50.355Z,23.39
2022-12-18T02:44:20.466Z,23.39
2022-12-18T02:44:50.578Z,23.41
2022-12-18T02:45:20.690Z,23.37
2022-12-18T02:45:50.903Z,23.37
2022-12-18T02:46:20.932Z,23.37
2022-12-18T02:46:50.983Z,23.39
2022-12-18T02:47:20.975Z,23.32
2022-12-18T02:47:51.094Z,23.37
2022-12-18T02:48:21.079Z,23.34
2022-12-18T02:48:51.151Z,23.31
2022-12-18T02:49:21.223Z,23.41
2022-12-18T02:49:51.298Z,23.37
2022-12-18T02:50:21.371Z,23.39
2022-12-18T02:50:51.446Z,23.36
2022-12-18T02:51:21.515Z,23.34
2022-12-18T02:51:51.602Z,23.34
2022-12-18T02:52:21.673Z,23.44
2022-12-18T02:52:51.751Z,23.42
2022-12-18T02:53:21.831Z,23.41
2022-12-18T02:53:51.901Z,23.39
2022-12-18T02:54:21.982Z,23.42
2022-12-18T02:54:52.054Z,23.41
2022-12-18T02:55:22.129Z,23.34
2022-12-18T02:55:52.214Z,23.41
2022-12-18T02:56:22.284Z,23.42
2022-12-18T02:56:52.366Z,23.41
2022-12-18T02:57:22.439Z,23.43
2022-12-18T02:57:52.511Z,23.40
2022-12-18T02:58:22.585Z,23.43
2022-12-18T02:58:52.824Z,23.43
2022-12-18T02:59:22.772Z,23.48
2022-12-18T02:59:52.883Z,23.50
2022-12-18T03:00:22.994Z,23.42
2022-12-18T03:00:53.176Z,23.46
2022-12-18T03:01:23.286Z,23.49
2022-12-18T03:01:53.323Z,23.49
2022-12-18T03:02:23.424Z,23.48
2022-12-18T03:02:53.417Z,23.48
2022-12-18T03:03:23.707Z,23.48
2022-12-18T03:03:53.295Z,23.51
2022-12-18T03:04:23.406Z,23.46
2022-12-18T03:04:53.521Z,23.51
2022-12-18T03:05:23.647Z,23.49
2022-12-18T03:05:53.748Z,23.51
2022-12-18T03:06:23.852Z,23.52
2022-12-18T03:06:53.966Z,23.57
2022-12-18T03:07:24.079Z,23.55
2022-12-18T03:07:54.192Z,23.57
2022-12-18T03:08:24.305Z,23.58
2022-12-18T03:08:54.421Z,23.55
2022-12-18T03:09:24.529Z,23.52
2022-12-18T03:09:54.644Z,23.56
2022-12-18T03:10:24.757Z,23.60
2022-12-18T03:10:54.875Z,23.60
2022-12-18T03:11:24.865Z,23.61
2022-12-18T03:11:54.983Z,23.61
2022-12-18T03:12:25.097Z,23.59
2022-12-18T03:12:55.210Z,23.61
2022-12-18T03:13:25.333Z,23.61
2022-12-18T03:13:55.323Z,23.70
2022-12-18T03:14:25.553Z,23.61
2022-12-18T03:14:55.503Z,23.64
2022-12-18T03:15:25.611Z,23.61
2022-12-18T03:15:55.736Z,23.67
2022-12-18T03:16:25.877Z,23.71
2022-12-18T03:16:55.933Z,23.68
2022-12-18T03:17:25.907Z,23.67
2022-12-18T03:17:56.014Z,23.68
2022-12-18T03:18:26.124Z,23.70
2022-12-18T03:18:56.237Z,23.70
2022-12-18T03:19:26.348Z,23.68
2022-12-18T03:19:56.459Z,23.73
2022-12-18T03:20:26.569Z,23.79
2022-12-18T03:20:56.679Z,23.75
2022-12-18T03:21:26.795Z,23.76
2022-12-18T03:21:56.906Z,23.71
2022-12-18T03:22:26.907Z,23.79
2022-12-18T03:22:57.019Z,23.78
2022-12-18T03:23:27.135Z,23.79
2022-12-18T03:23:57.253Z,23.75
2022-12-18T03:24:27.364Z,23.73
2022-12-18T03:24:57.504Z,23.67
2022-12-18T03:25:27.489Z,23.76
2022-12-18T03:25:57.609Z,23.74
2022-12-18T03:26:27.737Z,23.73
2022-12-18T03:26:57.841Z,23.75
2022-12-18T03:27:27.961Z,23.73
2022-12-18T03:27:58.075Z,23.74
2022-12-18T03:28:28.186Z,23.76
2022-12-18T03:28:58.302Z,23.74
2022-12-18T03:29:28.525Z,23.73
2022-12-18T03:29:58.480Z,23.78
2022-12-18T03:30:28.593Z,23.76
2022-12-18T03:30:58.781Z,23.84
2022-12-18T03:31:28.841Z,23.76
2022-12-18T03:31:58.819Z,23.75
2022-12-18T03:32:28.936Z,23.75
2022-12-18T03:33:00.514Z,23.71
2022-12-18T03:33:29.078Z,23.76
2022-12-18T03:33:59.200Z,23.78
2022-12-18T03:34:29.307Z,23.76
2022-12-18T03:34:59.424Z,23.73
2022-12-18T03:35:29.542Z,23.73
2022-12-18T03:35:59.652Z,23.72
2022-12-18T03:36:29.766Z,23.66
2022-12-18T03:36:59.875Z,23.70
2022-12-18T03:37:29.988Z,23.64
2022-12-18T03:38:00.105Z,23.70
2022-12-18T03:38:30.219Z,23.63
2022-12-18T03:39:00.335Z,23.63
2022-12-18T03:39:30.443Z,23.62
2022-12-18T03:40:00.561Z,23.65
2022-12-18T03:40:30.671Z,23.62
2022-12-18T03:41:00.782Z,23.58
2022-12-18T03:41:30.893Z,23.55
2022-12-18T03:42:01.005Z,23.50
2022-12-18T03:42:31.110Z,23.58
2022-12-18T03:43:01.248Z,23.52
2022-12-18T03:43:31.345Z,23.54
2022-12-18T03:44:01.465Z,23.44
2022-12-18T03:44:31.568Z,23.56
2022-12-18T03:45:01.518Z,23.52
2022-12-18T03:45:31.634Z,23.48
2022-12-18T03:46:01.828Z,23.46
2022-12-18T03:46:31.854Z,23.51
2022-12-18T03:47:01.885Z,23.45
2022-12-18T03:47:32.012Z,23.46
2022-12-18T03:48:02.000Z,23.45
2022-12-18T03:48:32.099Z,23.42
2022-12-18T03:49:02.173Z,23.42
2022-12-18T03:49:32.254Z,23.42
2022-12-18T03:50:02.326Z,23.38
2022-12-18T03:50:32.403Z,23.37
2022-12-18T03:51:02.474Z,23.50
2022-12-18T03:51:32.547Z,23.38
2022-12-18T03:52:02.624Z,23.37
2022-12-18T03:52:32.742Z,23.37
2022-12-18T03:53:02.697Z,23.42
2022-12-18T03:53:32.765Z,23.42
2022-12-18T03:54:02.842Z,23.43
2022-12-18T03:54:32.925Z,23.36
2022-12-18T03:55:03.005Z,23.38
2022-12-18T03:55:33.073Z,23.32
2022-12-18T03:56:03.144Z,23.40
2022-12-18T03:56:33.221Z,23.32
2022-12-18T03:57:03.301Z,23.37
2022-12-18T03:57:33.389Z,23.36
2022-12-18T03:58:03.467Z,23.36
2022-12-18T03:58:33.547Z,23.36
2022-12-18T03:59:03.663Z,23.35
2022-12-18T03:59:33.905Z,23.35
2022-12-18T04:00:03.848Z,23.38
2022-12-18T04:00:33.966Z,23.40
2022-12-18T04:01:04.079Z,23.35
2022-12-18T04:01:34.329Z,23.40
2022-12-18T04:02:04.343Z,23.38
2022-12-18T04:02:34.385Z,23.32
2022-12-18T04:03:04.341Z,23.35
2022-12-18T04:03:36.377Z,23.40
2022-12-18T04:04:04.482Z,23.38
2022-12-18T04:04:34.459Z,23.42
2022-12-18T04:05:04.570Z,23.41
2022-12-18T04:05:34.684Z,23.38
2022-12-18T04:06:04.798Z,23.45
2022-12-18T04:06:34.846Z,23.43
2022-12-18T04:07:04.944Z,23.41
2022-12-18T04:07:35.049Z,23.36
2022-12-18T04:08:05.164Z,23.43
2022-12-18T04:08:35.273Z,23.46
2022-12-18T04:09:05.403Z,23.41
2022-12-18T04:09:35.391Z,23.41
2022-12-18T04:10:05.500Z,23.41
2022-12-18T04:10:35.613Z,23.40
2022-12-18T04:11:05.734Z,23.43
2022-12-18T04:11:35.843Z,23.44
2022-12-18T04:12:05.974Z,23.43
2022-12-18T04:12:35.952Z,23.46
2022-12-18T04:13:06.069Z,23.46
2022-12-18T04:13:36.489Z,23.46
2022-12-18T04:14:07.467Z,23.46
2022-12-18T04:14:36.279Z,23.50
2022-12-18T04:15:12.378Z,23.52
2022-12-18T04:15:36.581Z,23.47
2022-12-18T04:16:06.564Z,23.56
2022-12-18T04:16:36.432Z,23.50
2022-12-18T04:17:06.549Z,23.53
2022-12-18T04:17:36.660Z,23.53
2022-12-18T04:18:06.776Z,23.53
2022-12-18T04:18:36.891Z,23.48
2022-12-18T04:19:07.003Z,23.56
2022-12-18T04:19:37.076Z,23.56
2022-12-18T04:20:07.197Z,23.53
2022-12-18T04:20:37.314Z,23.59
2022-12-18T04:21:07.423Z,23.53
2022-12-18T04:21:37.538Z,23.57
2022-12-18T04:22:07.569Z,23.56
2022-12-18T04:22:37.680Z,23.57
2022-12-18T04:23:07.794Z,23.56
2022-12-18T04:23:38.173Z,23.56
2022-12-18T04:24:07.922Z,23.59
2022-12-18T04:24:38.037Z,23.57
2022-12-18T04:25:08.135Z,23.59
2022-12-18T04:25:38.247Z,23.56
2022-12-18T04:26:08.360Z,23.62
2022-12-18T04:26:38.467Z,23.59
2022-12-18T04:27:08.581Z,23.60
2022-12-18T04:27:38.695Z,23.62
2022-12-18T04:28:08.813Z,23.62
2022-12-18T04:28:38.919Z,23.67
2022-12-18T04:29:09.066Z,23.59
2022-12-18T04:29:39.046Z,23.62
2022-12-18T04:30:09.161Z,23.65
2022-12-18T04:30:39.395Z,23.62
2022-12-18T04:31:09.391Z,23.60
2022-12-18T04:31:39.372Z,23.67
2022-12-18T04:32:09.484Z,23.63
2022-12-18T04:32:39.597Z,23.63
2022-12-18T04:33:09.590Z,23.62
2022-12-18T04:33:40.076Z,23.62
2022-12-18T04:34:09.744Z,23.67
2022-12-18T04:34:39.860Z,23.65
2022-12-18T04:35:09.973Z,23.59
2022-12-18T04:35:39.967Z,23.68
2022-12-18T04:36:10.082Z,23.67
2022-12-18T04:36:40.195Z,23.67
2022-12-18T04:37:10.307Z,23.65
2022-12-18T04:37:40.438Z,23.64
2022-12-18T04:38:10.537Z,23.64
2022-12-18T04:38:40.641Z,23.64
2022-12-18T04:39:10.763Z,23.65
2022-12-18T04:39:40.872Z,23.64
2022-12-18T04:40:10.987Z,23.64
2022-12-18T04:40:41.431Z,23.56
2022-12-18T04:41:11.238Z,23.59
2022-12-18T04:41:41.225Z,23.53
2022-12-18T04:42:11.337Z,23.56
2022-12-18T04:42:41.504Z,23.58
2022-12-18T04:43:11.581Z,23.52
2022-12-18T04:43:41.889Z,23.53
2022-12-18T04:44:11.643Z,23.48
2022-12-18T04:44:41.757Z,23.42
2022-12-18T04:45:11.873Z,23.44
2022-12-18T04:45:42.107Z,23.54
2022-12-18T04:46:12.152Z,23.52
2022-12-18T04:46:42.182Z,23.36
2022-12-18T04:47:12.138Z,23.46
2022-12-18T04:47:42.253Z,23.38
2022-12-18T04:48:12.367Z,23.43
2022-12-18T04:48:42.469Z,23.40
2022-12-18T04:49:12.541Z,23.43
2022-12-18T04:49:42.616Z,23.36
2022-12-18T04:50:12.690Z,23.44
2022-12-18T04:50:42.760Z,23.41
2022-12-18T04:51:12.831Z,23.38
2022-12-18T04:51:42.908Z,23.37
2022-12-18T04:52:12.981Z,23.33
2022-12-18T04:52:43.057Z,23.37
2022-12-18T04:53:13.131Z,23.37
2022-12-18T04:53:43.487Z,23.33
2022-12-18T04:54:13.245Z,23.35
2022-12-18T04:54:43.322Z,23.35
2022-12-18T04:55:13.395Z,23.28
2022-12-18T04:55:43.466Z,23.28
2022-12-18T04:56:13.544Z,23.32
2022-12-18T04:56:43.617Z,23.25
2022-12-18T04:57:13.688Z,23.26
2022-12-18T04:57:43.767Z,23.28
2022-12-18T04:58:13.839Z,23.27
2022-12-18T04:58:43.944Z,23.27
2022-12-18T04:59:14.054Z,23.32
2022-12-18T04:59:44.165Z,23.27
2022-12-18T05:00:14.277Z,23.23
2022-12-18T05:00:44.394Z,23.28
2022-12-18T05:01:14.747Z,23.28
2022-12-18T05:01:44.655Z,23.27
2022-12-18T05:02:14.728Z,23.30
2022-12-18T05:02:44.849Z,23.25
2022-12-18T05:03:14.824Z,23.23
2022-12-18T05:03:45.532Z,23.27
2022-12-18T05:04:14.847Z,23.21
2022-12-18T05:04:44.913Z,23.28
2022-12-18T05:05:15.023Z,23.28
2022-12-18T05:05:45.141Z,23.27
2022-12-18T05:06:15.249Z,23.25
2022-12-18T05:06:45.364Z,23.30
2022-12-18T05:07:15.474Z,23.28
2022-12-18T05:07:45.586Z,23.30
2022-12-18T05:08:15.628Z,23.25
2022-12-18T05:08:45.737Z,23.34
2022-12-18T05:09:15.806Z,23.30
2022-12-18T05:09:45.959Z,23.32
2022-12-18T05:10:15.946Z,23.30
2022-12-18T05:10:46.063Z,23.28
2022-12-18T05:11:16.173Z,23.28
2022-12-18T05:11:46.292Z,23.33
2022-12-18T05:12:16.344Z,23.33
2022-12-18T05:12:46.463Z,23.34
2022-12-18T05:13:16.579Z,23.22
2022-12-18T05:13:46.686Z,23.33
2022-12-18T05:14:16.804Z,23.35
2022-12-18T05:14:46.919Z,23.32
2022-12-18T05:15:16.904Z,23.30
2022-12-18T05:15:47.080Z,23.35
2022-12-18T05:16:17.375Z,23.32
2022-12-18T05:16:47.084Z,23.35
2022-12-18T05:17:17.215Z,23.35
2022-12-18T05:17:47.199Z,23.30
2022-12-18T05:18:17.313Z,23.35
2022-12-18T05:18:47.430Z,23.30
2022-12-18T05:19:17.539Z,23.33
2022-12-18T05:19:47.647Z,23.33
2022-12-18T05:20:17.758Z,23.40
2022-12-18T05:20:47.892Z,23.40
2022-12-18T05:21:17.875Z,23.36
2022-12-18T05:21:47.988Z,23.37
2022-12-18T05:22:18.137Z,23.44
2022-12-18T05:22:48.117Z,23.41
2022-12-18T05:23:18.230Z,23.46
2022-12-18T05:23:48.349Z,23.44
2022-12-18T05:24:18.460Z,23.46
2022-12-18T05:24:48.572Z,23.44
2022-12-18T05:25:18.682Z,23.44
2022-12-18T05:25:48.802Z,23.43
2022-12-18T05:26:18.908Z,23.41
2022-12-18T05:26:49.028Z,23.47
2022-12-18T05:27:19.041Z,23.43
2022-12-18T05:27:49.027Z,23.48
2022-12-18T05:28:19.140Z,23.53
2022-12-18T05:28:49.253Z,23.45
2022-12-18T05:29:19.367Z,23.49
2022-12-18T05:29:49.475Z,23.48
2022-12-18T05:30:19.592Z,23.51
2022-12-18T05:30:49.780Z,23.49
2022-12-18T05:31:19.942Z,23.54
2022-12-18T05:31:49.899Z,23.56
2022-12-18T05:32:19.926Z,23.56
2022-12-18T05:32:49.911Z,23.49
2022-12-18T05:33:20.022Z,23.53
2022-12-18T05:33:50.137Z,23.56
2022-12-18T05:34:20.248Z,23.56
2022-12-18T05:34:50.377Z,23.53
2022-12-18T05:35:20.359Z,23.57
2022-12-18T05:35:50.473Z,23.57
2022-12-18T05:36:20.581Z,23.54
2022-12-18T05:36:50.699Z,23.57
2022-12-18T05:37:20.816Z,23.62
2022-12-18T05:37:50.927Z,23.62
2022-12-18T05:38:21.043Z,23.57
2022-12-18T05:38:51.153Z,23.60
2022-12-18T05:39:21.266Z,23.65
2022-12-18T05:39:51.382Z,23.57
2022-12-18T05:40:21.490Z,23.57
2022-12-18T05:40:51.606Z,23.63
2022-12-18T05:41:21.725Z,23.62
2022-12-18T05:41:51.831Z,23.63
2022-12-18T05:42:21.950Z,23.59
2022-12-18T05:42:52.063Z,23.63
2022-12-18T05:43:22.189Z,23.57
2022-12-18T05:43:52.294Z,23.62
2022-12-18T05:44:22.409Z,23.62
2022-12-18T05:44:52.519Z,23.65
2022-12-18T05:45:22.632Z,23.62
2022-12-18T05:45:52.747Z,23.63
2022-12-18T05:46:23.045Z,23.62
2022-12-18T05:46:52.981Z,23.63
2022-12-18T05:47:23.013Z,23.62
2022-12-18T05:47:53.004Z,23.62
2022-12-18T05:48:23.021Z,23.62
2022-12-18T05:48:53.091Z,23.62
2022-12-18T05:49:23.156Z,23.59
2022-12-18T05:49:53.235Z,23.64
2022-12-18T05:50:23.301Z,23.61
2022-12-18T05:50:53.384Z,23.61
2022-12-18T05:51:23.456Z,23.59
2022-12-18T05:51:53.531Z,23.54
2022-12-18T05:52:23.612Z,23.53
2022-12-18T05:52:53.689Z,23.59
2022-12-18T05:53:23.766Z,23.55
2022-12-18T05:53:53.840Z,23.56
2022-12-18T05:54:23.913Z,23.56
2022-12-18T05:54:53.990Z,23.50
2022-12-18T05:55:24.065Z,23.47
2022-12-18T05:55:54.063Z,23.44
2022-12-18T05:56:24.135Z,23.50
2022-12-18T05:56:54.209Z,23.49
2022-12-18T05:57:24.289Z,23.47
2022-12-18T05:57:54.317Z,23.46
2022-12-18T05:58:24.394Z,23.39
2022-12-18T05:58:54.509Z,23.48
2022-12-18T05:59:24.580Z,23.49
2022-12-18T05:59:54.697Z,23.38
2022-12-18T06:00:24.809Z,23.41
2022-12-18T06:00:54.924Z,23.40
2022-12-18T06:01:25.253Z,23.36
2022-12-18T06:01:55.285Z,23.40
2022-12-18T06:02:25.267Z,23.41
2022-12-18T06:02:55.517Z,23.30
2022-12-18T06:03:29.359Z,23.32
2022-12-18T06:03:55.423Z,23.33
2022-12-18T06:04:25.421Z,23.35
2022-12-18T06:04:55.538Z,23.33
2022-12-18T06:05:25.646Z,23.37
2022-12-18T06:05:55.764Z,23.35
2022-12-18T06:06:25.875Z,23.37
2022-12-18T06:06:55.944Z,23.30
2022-12-18T06:07:25.930Z,23.32
2022-12-18T06:07:56.042Z,23.32
2022-12-18T06:08:26.151Z,23.35
2022-12-18T06:08:56.267Z,23.28
2022-12-18T06:09:26.377Z,23.30
2022-12-18T06:09:56.493Z,23.23
2022-12-18T06:10:26.607Z,23.32
2022-12-18T06:10:56.721Z,23.32
2022-12-18T06:11:26.835Z,23.32
2022-12-18T06:11:57.021Z,23.32
2022-12-18T06:12:27.002Z,23.30
2022-12-18T06:12:57.123Z,23.32
2022-12-18T06:13:27.226Z,23.30
2022-12-18T06:13:58.924Z,23.32
2022-12-18T06:14:27.423Z,23.35
2022-12-18T06:14:57.532Z,23.34
2022-12-18T06:15:27.759Z,23.38
2022-12-18T06:15:57.778Z,23.30
2022-12-18T06:16:28.012Z,23.32
2022-12-18T06:16:57.781Z,23.33
2022-12-18T06:17:27.761Z,23.40
2022-12-18T06:17:57.875Z,23.38
2022-12-18T06:18:27.978Z,23.41
2022-12-18T06:18:58.095Z,23.38
2022-12-18T06:19:28.205Z,23.40
2022-12-18T06:19:58.320Z,23.36
2022-12-18T06:20:33.239Z,23.35
2022-12-18T06:20:58.454Z,23.40
2022-12-18T06:21:28.565Z,23.40
2022-12-18T06:21:58.678Z,23.43
2022-12-18T06:22:28.792Z,23.40
2022-12-18T06:22:58.904Z,23.38
2022-12-18T06:23:29.015Z,23.44
2022-12-18T06:23:59.153Z,23.41
2022-12-18T06:24:29.229Z,23.41
2022-12-18T06:24:59.226Z,23.41
2022-12-18T06:25:29.369Z,23.43
2022-12-18T06:25:59.350Z,23.44
2022-12-18T06:26:29.469Z,23.44
2022-12-18T06:26:59.581Z,23.42
2022-12-18T06:27:29.693Z,23.41